ROMMA est une association bénévole à but non lucratif. Votre soutien est indispensable : ADHERER à ROMMA ou FAIRE un DON

Granges-lès-Beaumont - (26, Drôme)

Drôme des Collines (155 m)   Longitude: 04°58'E   Latitude: 45°03'N Station partenaire n°123
 

Détail journalier du     <<     >>

Température Precipitation Humidité Pression Vent Dir Rafale Dir. rafale Ensol.
Heure (°C) (mm) (%) (hPa) (km/h) (km/h) (min)
01:00 12.408210127SSO34SSO0
02:00 12.7080101216SSO35S0
03:00 12.6079101210SO23S0
04:00 12.907810119SSO24S0
05:00 13.2078101113SSO44S0
06:00 13.1079101115SSO39SSE0
07:00 13.3078101014SSO39SSO0
08:00 12.9080101017SSO48S0
09:00 13.2080101120SSO52SSO0
10:00 13.6079101122SSO52S0
11:00 14.2075101126S55SSO0
12:00 14.7073101026SSO64S0
13:00 15.2073101028SSO61SSE30
14:00 15.3073101024SSO50SSO0
15:00 15.1074100921SSO45S30
16:00 14.9075100820SSO45SSO0
17:00 14.8073100820SSO50S0
18:00 14.5074100716S44S0
19:00 14.7070100716S35S0
20:00 14.1072100618SSO44S0
21:00 14.2069100619SO45S0
22:00 14.5065100516SSO37SSO0
23:00 14.7065100520SSO45SSO0
minuit 14.0069100616S35S0

Graphique du 16-12-2019

 

Serveur OMMA